• Join FlightAware (Why Join?)
  • Login
  • US Flag 
01:21PM EDT


 

Airport Tracker/Info


-or-


 

Live Flight TrackerFlight Track Log ✈ SWA303 ✈ 07-Nov-2013 ✈ KMDW - KSDF

Flight Track Log - Related Links

Times and Time Zones

All times are in EST time to prevent confusion due to time zone crossing. See the SWA303 flight status page for this flight to view local times or setup timezone preferences in your user account.

Time Position Orientation Groundspeed Altitude Reporting Facility
EST Latitude Longitude Course Direction KTS MPH feet Rate Location/Type
10:39PM 41.7656 -87.8025 174° South 193 222 3,500  Level Chicago Center
10:40PM 41.6992 -87.8158 189° South 248 285 6,500 3,360 Climbing Chicago Center
10:41PM 41.6172 -87.7889 166° South 292 336 10,400 3,240 Climbing Chicago Center
10:42PM 41.5183 -87.7578 167° South 366 421 13,200 3,060 Climbing Chicago Center
10:43PM 41.4094 -87.7250 167° South 393 452 16,700 3,060 Climbing Chicago Center
10:44PM 41.2594 -87.4436 174° South  Level Estimated
10:44PM 41.2928 -87.7258 180° South 413 475 19,500  Level Chicago Center
10:45PM 41.1689 -87.7219 179° South 437 503 22,000 1,680 Climbing Chicago Center
10:46PM 41.0378 -87.7036 174° South 471 542 23,000 480 Climbing Chicago Center
10:47PM 40.8803 -87.6822 174° South 472 543 23,000 -300 Level Chicago Center
10:48PM 40.7525 -87.6642 174° South 465 535 22,500 -1,020 Descending Chicago Center
10:49PM 40.6258 -87.6472 174° South 460 529 21,000 -780 Descending Chicago Center
10:50PM 40.5003 -87.6300 174° South 455 524 21,000  Level Chicago Center
10:51PM 40.3758 -87.6147 175° South 452 520 21,000  Level Chicago Center
10:52PM 40.2514 -87.6069 177° South 450 518 21,000  Level Chicago Center
10:53PM 40.1236 -87.5764 170° South 476 548 21,000  Level Chicago Center
10:54PM 40.0272 -87.4911 146° Southeast 503 579 21,000  Level Indianapolis Center
10:55PM 39.9103 -87.3853 145° Southeast 513 590 21,000  Level Indianapolis Center
10:56PM 39.7953 -87.2758 144° Southeast 516 594 21,000  Level Indianapolis Center
10:57PM 39.6808 -87.1700 145° Southeast 512 589 21,000  Level Indianapolis Center
10:58PM 39.5425 -87.0453 145° Southeast 510 587 21,000  Level Indianapolis Center
10:59PM 39.4281 -86.9417 145° Southeast 508 585 21,000  Level Indianapolis Center
11:00PM 39.3150 -86.8389 145° Southeast 504 580 21,000  Level Indianapolis Center
11:01PM 39.2025 -86.7378 145° Southeast 500 575 21,000  Level Indianapolis Center
11:02PM 39.0972 -86.6431 145° Southeast 497 572 21,000 -60 Level Indianapolis Center
11:03PM 38.9803 -86.5386 145° Southeast 491 565 20,900 -1,140 Descending Indianapolis Center
11:04PM 38.8725 -86.4439 146° Southeast 487 560 18,800 -1,800 Descending Indianapolis Center
11:05PM 38.7472 -86.3319 145° Southeast 460 529 17,300 -1,440 Descending Indianapolis Center
11:06PM 38.6594 -86.2375 140° Southeast 418 481 15,900 -1,560 Descending Indianapolis Center
11:07PM 38.5756 -86.1381 137° Southeast 406 467 14,200 -1,680 Descending Indianapolis Center
11:08PM 38.4817 -86.0775 153° Southeast 379 436 12,500 -1,680 Descending Indianapolis Center
11:09PM 38.3925 -86.0272 156° South 356 410 10,900 -1,500 Descending Indianapolis Center
11:10PM 38.3086 -85.9844 158° South 328 377 9,500 -1,440 Descending Indianapolis Center
11:11PM 38.2369 -85.9186 144° Southeast 320 368 8,000 -1,440 Descending Indianapolis Center
11:12PM 38.1647 -85.8561 146° Southeast 314 361 6,600 -1,500 Descending Indianapolis Center
11:13PM 38.0875 -85.8217 161° South 304 350 5,000 -1,320 Descending Indianapolis Center
11:14PM 38.0108 -85.8003 168° South 290 334 4,000 -540 Descending Indianapolis Center
11:15PM 37.9481 -85.7647 156° South 271 312 4,000  Level Indianapolis Center
11:16PM 37.9644 -85.6986 73° East 233 268 4,000 -300 Level Indianapolis Center
11:17PM 38.0081 -85.6894 North 187 215 3,500 -600 Descending Indianapolis Center
11:18PM 38.0514 -85.7017 347° North 168 193 2,800 -780 Descending Indianapolis Center
11:21PM 38.1500 -85.7333 346° North 130 150 700 -780 Descending Louisville TRACON